Darstellungsparameter: Aktuell verwendete Einstellungen:
Skalierung der Graphiken ... ?
xyx+y,   Skalierungsfaktor:      Skalierung: Modus: x, Faktor: 1
Darstellungszeitraum ... ?
Vom - - bis: - -   Zeitraum: 25.04.2021 - 25.04.2021
Min/Max/Avg-Anzeige ... ?
Zeige MMA aktuell
Zeige MMA Monat
Zeige MMA alles
Zeige --A aktuell
Zeige --A Monat
Zeige --A alles
Keine MMA-Anzeige
MMA:
Keine MMA-Graphiken
MMA-Basis: 25.04.2021 - 25.04.2021
Quicknavigation für Darstellung... ?
Tage:      1T, 2T, 3T, 5T -1T -2T -3T -5T +1T +2T +3T +5T
Wochen: 1W, 2W, 3W -1W -2W -3W +1W +2W +3W
Monate: 1M, 3M, 6M -1M -3M -6M +1M +3M +6M
Jahre:    1J, 3J, 5J, 10J -1J -3J -5J -10J +1J +3J +5J +10J
Nutze für die Darstellung ... ?
Originaldaten oder Mittelwerte auf ...
Stundenbasis Tagesbasis Wochenbasis
Monatsbasis Jahresbasis      Datenbasis: Original-Daten
Darstellen als:
Statistik (Auto) Statistik J:M      Darstellung:
Zur Graphik,    zurück zur Übersicht aller Sensoren.
 
Tabellarische Datenbersicht: ?
 
Sensor: Nr:Datum:Temp:Feuchte:Taupunkt:
Aussen-T/F 1 25-04-2021 00:00:00 6.7 C 77 % 2.96 C
2 25-04-2021 00:05:00 6.6 C 77 % 2.86 C
3 25-04-2021 00:10:00 6.5 C 77 % 2.77 C
4 25-04-2021 00:15:00 6.4 C 77 % 2.67 C
5 25-04-2021 00:20:00 6.3 C 78 % 2.75 C
6 25-04-2021 00:25:00 6.3 C 79 % 2.93 C
7 25-04-2021 00:30:00 6.2 C 79 % 2.84 C
8 25-04-2021 00:35:00 6.2 C 78 % 2.66 C
9 25-04-2021 00:40:00 6.1 C 78 % 2.56 C
10 25-04-2021 00:45:00 6 C 79 % 2.64 C
11 25-04-2021 00:50:00 5.9 C 79 % 2.54 C
12 25-04-2021 00:55:00 5.9 C 79 % 2.54 C
13 25-04-2021 01:00:00 5.8 C 80 % 2.62 C
14 25-04-2021 01:05:00 5.8 C 80 % 2.62 C
15 25-04-2021 01:10:00 5.7 C 80 % 2.53 C
16 25-04-2021 01:15:00 5.6 C 80 % 2.43 C
17 25-04-2021 01:20:00 5.6 C 80 % 2.43 C
18 25-04-2021 01:25:00 5.5 C 81 % 2.51 C
19 25-04-2021 01:30:00 5.6 C 81 % 2.6 C
20 25-04-2021 01:35:00 5.5 C 81 % 2.51 C
21 25-04-2021 01:40:00 5.4 C 81 % 2.41 C
22 25-04-2021 01:45:00 5.4 C 81 % 2.41 C
23 25-04-2021 01:50:00 5.4 C 81 % 2.41 C
24 25-04-2021 01:55:00 5.3 C 81 % 2.31 C
25 25-04-2021 02:00:00 5.2 C 81 % 2.21 C
Sensor: Nr:Datum:Temp:Feuchte:Taupunkt:
Aussen-T/F 26 25-04-2021 02:05:00 5.2 C 82 % 2.39 C
27 25-04-2021 02:10:00 5.1 C 82 % 2.29 C
28 25-04-2021 02:15:00 5 C 82 % 2.19 C
29 25-04-2021 02:20:00 4.9 C 82 % 2.09 C
30 25-04-2021 02:25:00 4.9 C 83 % 2.26 C
31 25-04-2021 02:30:00 4.8 C 83 % 2.16 C
32 25-04-2021 02:35:00 4.8 C 83 % 2.16 C
33 25-04-2021 02:40:00 4.7 C 83 % 2.07 C
34 25-04-2021 02:45:00 4.6 C 83 % 1.97 C
35 25-04-2021 02:50:00 4.6 C 84 % 2.14 C
36 25-04-2021 02:55:00 4.6 C 84 % 2.14 C
37 25-04-2021 03:00:00 4.5 C 84 % 2.04 C
38 25-04-2021 03:05:00 4.5 C 84 % 2.04 C
39 25-04-2021 03:10:00 4.4 C 84 % 1.94 C
40 25-04-2021 03:15:00 4.4 C 84 % 1.94 C
41 25-04-2021 03:20:00 4.3 C 85 % 2.01 C
42 25-04-2021 03:25:00 4.3 C 85 % 2.01 C
43 25-04-2021 03:30:00 4.2 C 85 % 1.91 C
44 25-04-2021 03:35:00 4.1 C 84 % 1.65 C
45 25-04-2021 03:40:00 4 C 85 % 1.71 C
46 25-04-2021 03:45:00 3.9 C 85 % 1.61 C
47 25-04-2021 03:50:00 3.9 C 85 % 1.61 C
48 25-04-2021 03:55:00 3.8 C 85 % 1.52 C
49 25-04-2021 04:00:00 3.7 C 85 % 1.42 C
50 25-04-2021 04:05:00 3.6 C 85 % 1.32 C
Sensor: Nr:Datum:Temp:Feuchte:Taupunkt:
Aussen-T/F 51 25-04-2021 04:10:00 3.5 C 86 % 1.38 C
52 25-04-2021 04:15:00 3.4 C 86 % 1.29 C
53 25-04-2021 04:20:00 3.3 C 86 % 1.19 C
54 25-04-2021 04:25:00 3.3 C 86 % 1.19 C
55 25-04-2021 04:30:00 3.3 C 86 % 1.19 C
56 25-04-2021 04:35:00 3.2 C 86 % 1.09 C
57 25-04-2021 04:40:00 3.2 C 86 % 1.09 C
58 25-04-2021 04:45:00 3.1 C 86 % 0.99 C
59 25-04-2021 04:50:00 3 C 86 % 0.89 C
60 25-04-2021 04:55:00 2.9 C 86 % 0.8 C
61 25-04-2021 05:00:00 2.8 C 86 % 0.7 C
62 25-04-2021 05:05:00 2.8 C 86 % 0.7 C
63 25-04-2021 05:10:00 2.8 C 86 % 0.7 C
64 25-04-2021 05:15:00 2.7 C 86 % 0.6 C
65 25-04-2021 05:20:00 2.7 C 87 % 0.76 C
66 25-04-2021 05:25:00 2.6 C 87 % 0.66 C
67 25-04-2021 05:30:00 2.6 C 87 % 0.66 C
68 25-04-2021 05:35:00 2.4 C 86 % 0.3 C
69 25-04-2021 05:40:00 2.4 C 87 % 0.46 C
70 25-04-2021 05:45:00 2.3 C 87 % 0.36 C
71 25-04-2021 05:50:00 2.3 C 87 % 0.36 C
72 25-04-2021 05:55:00 2.3 C 87 % 0.36 C
73 25-04-2021 06:00:00 2.3 C 87 % 0.36 C
74 25-04-2021 06:05:00 2.3 C 87 % 0.36 C
75 25-04-2021 06:10:00 2.4 C 87 % 0.46 C
Sensor: Nr:Datum:Temp:Feuchte:Taupunkt:
Aussen-T/F 76 25-04-2021 06:15:00 2.4 C 86 % 0.3 C
77 25-04-2021 06:20:00 2.4 C 86 % 0.3 C
78 25-04-2021 06:25:00 2.6 C 86 % 0.5 C
79 25-04-2021 06:30:00 2.7 C 86 % 0.6 C
80 25-04-2021 06:35:00 2.9 C 85 % 0.63 C
81 25-04-2021 06:40:00 3.1 C 84 % 0.67 C
82 25-04-2021 06:45:00 3.2 C 83 % 0.6 C
83 25-04-2021 06:50:00 3.3 C 82 % 0.53 C
84 25-04-2021 06:55:00 3.3 C 82 % 0.53 C
85 25-04-2021 07:00:00 3.3 C 82 % 0.53 C
86 25-04-2021 07:05:00 3.3 C 82 % 0.53 C
87 25-04-2021 07:10:00 3.2 C 82 % 0.43 C
88 25-04-2021 07:15:00 3.2 C 82 % 0.43 C
89 25-04-2021 07:20:00 3.1 C 82 % 0.33 C
90 25-04-2021 07:25:00 3 C 83 % 0.4 C
91 25-04-2021 07:30:00 3 C 83 % 0.4 C
92 25-04-2021 07:35:00 3 C 83 % 0.4 C
93 25-04-2021 07:40:00 3 C 83 % 0.4 C
94 25-04-2021 07:45:00 2.9 C 83 % 0.31 C
95 25-04-2021 07:50:00 2.9 C 84 % 0.47 C
96 25-04-2021 07:55:00 2.9 C 84 % 0.47 C
97 25-04-2021 08:00:00 2.9 C 84 % 0.47 C
98 25-04-2021 08:05:00 2.9 C 84 % 0.47 C
99 25-04-2021 08:10:00 2.9 C 84 % 0.47 C
100 25-04-2021 08:15:00 3 C 84 % 0.57 C
Sensor: Nr:Datum:Temp:Feuchte:Taupunkt:
Aussen-T/F 101 25-04-2021 08:20:00 3.1 C 84 % 0.67 C
102 25-04-2021 08:25:00 3.4 C 82 % 0.63 C
103 25-04-2021 08:30:00 3.9 C 79 % 0.6 C
104 25-04-2021 08:35:00 4.2 C 77 % 0.54 C
105 25-04-2021 08:40:00 4.5 C 77 % 0.83 C
106 25-04-2021 08:45:00 4.7 C 75 % 0.66 C
107 25-04-2021 08:50:00 4.8 C 75 % 0.75 C
108 25-04-2021 08:55:00 4.9 C 74 % 0.67 C
109 25-04-2021 09:00:00 4.9 C 74 % 0.67 C
110 25-04-2021 09:05:00 5 C 74 % 0.76 C
111 25-04-2021 09:10:00 5.1 C 73 % 0.67 C
112 25-04-2021 09:15:00 5.2 C 74 % 0.95 C
113 25-04-2021 09:20:00 5.2 C 73 % 0.77 C
114 25-04-2021 09:25:00 5.3 C 72 % 0.67 C
115 25-04-2021 09:30:00 5.4 C 72 % 0.77 C
116 25-04-2021 09:35:00 5.5 C 72 % 0.86 C
117 25-04-2021 09:40:00 5.6 C 73 % 1.15 C
118 25-04-2021 09:45:00 5.8 C 72 % 1.15 C
119 25-04-2021 09:50:00 5.9 C 72 % 1.25 C
120 25-04-2021 09:55:00 6.1 C 71 % 1.25 C
121 25-04-2021 10:00:00 6.2 C 70 % 1.15 C
122 25-04-2021 10:05:00 6.3 C 70 % 1.24 C
123 25-04-2021 10:10:00 6.4 C 70 % 1.34 C
124 25-04-2021 10:15:00 6.7 C 69 % 1.43 C
125 25-04-2021 10:20:00 6.8 C 68 % 1.32 C
Sensor: Nr:Datum:Temp:Feuchte:Taupunkt:
Aussen-T/F 126 25-04-2021 10:25:00 6.9 C 67 % 1.21 C
127 25-04-2021 10:30:00 7.1 C 67 % 1.4 C
128 25-04-2021 10:35:00 7.3 C 67 % 1.59 C
129 25-04-2021 10:40:00 7.5 C 66 % 1.57 C
130 25-04-2021 10:45:00 7.7 C 65 % 1.55 C
131 25-04-2021 10:50:00 7.8 C 66 % 1.86 C
132 25-04-2021 10:55:00 8.1 C 65 % 1.93 C
133 25-04-2021 11:00:00 8.4 C 64 % 2 C
134 25-04-2021 11:05:00 8.7 C 63 % 2.06 C
135 25-04-2021 11:10:00 8.8 C 61 % 1.71 C
136 25-04-2021 11:15:00 8.8 C 62 % 1.93 C
137 25-04-2021 11:20:00 8.7 C 62 % 1.84 C
138 25-04-2021 11:25:00 8.7 C 62 % 1.84 C
139 25-04-2021 11:30:00 8.8 C 62 % 1.93 C
140 25-04-2021 11:35:00 9 C 62 % 2.12 C
141 25-04-2021 11:40:00 9.1 C 61 % 1.99 C
142 25-04-2021 11:45:00 9.2 C 61 % 2.08 C
143 25-04-2021 11:50:00 9.4 C 60 % 2.04 C
144 25-04-2021 11:55:00 9.6 C 60 % 2.23 C
145 25-04-2021 12:00:00 9.7 C 59 % 2.09 C
146 25-04-2021 12:05:00 9.8 C 58 % 1.94 C
147 25-04-2021 12:10:00 9.8 C 57 % 1.7 C
148 25-04-2021 12:15:00 9.8 C 57 % 1.7 C
149 25-04-2021 12:20:00 9.9 C 57 % 1.79 C
150 25-04-2021 12:25:00 10 C 57 % 1.89 C
Sensor: Nr:Datum:Temp:Feuchte:Taupunkt:
Aussen-T/F 151 25-04-2021 12:30:00 10.1 C 56 % 1.73 C
152 25-04-2021 12:35:00 10.1 C 56 % 1.73 C
153 25-04-2021 12:40:00 10.1 C 56 % 1.73 C
154 25-04-2021 12:45:00 10 C 57 % 1.89 C
155 25-04-2021 12:50:00 10.1 C 57 % 1.98 C
156 25-04-2021 12:55:00 10.1 C 55 % 1.48 C
157 25-04-2021 13:00:00 10.2 C 56 % 1.83 C
158 25-04-2021 13:05:00 10.2 C 55 % 1.58 C
159 25-04-2021 13:10:00 10.3 C 56 % 1.92 C
160 25-04-2021 13:15:00 10.4 C 56 % 2.01 C
161 25-04-2021 13:20:00 10.7 C 54 % 1.78 C
162 25-04-2021 13:25:00 10.7 C 54 % 1.78 C
163 25-04-2021 13:30:00 10.9 C 53 % 1.71 C
164 25-04-2021 13:35:00 10.9 C 53 % 1.71 C
165 25-04-2021 13:40:00 11.1 C 53 % 1.9 C
166 25-04-2021 13:45:00 11.2 C 50 % 1.18 C
167 25-04-2021 13:50:00 11.3 C 51 % 1.54 C
168 25-04-2021 13:55:00 11.5 C 52 % 2 C
169 25-04-2021 14:00:00 11.7 C 50 % 1.64 C
170 25-04-2021 14:05:00 11.8 C 51 % 2.01 C
171 25-04-2021 14:10:00 12 C 48 % 1.34 C
172 25-04-2021 14:15:00 12.1 C 49 % 1.72 C
173 25-04-2021 14:20:00 12.2 C 50 % 2.1 C
174 25-04-2021 14:25:00 12.4 C 48 % 1.71 C
175 25-04-2021 14:30:00 12.6 C 47 % 1.6 C
Sensor: Nr:Datum:Temp:Feuchte:Taupunkt:
Aussen-T/F 176 25-04-2021 14:35:00 12.6 C 46 % 1.3 C
177 25-04-2021 14:40:00 12.6 C 48 % 1.89 C
178 25-04-2021 14:45:00 12.8 C 47 % 1.78 C
179 25-04-2021 14:50:00 13.1 C 47 % 2.06 C
180 25-04-2021 14:55:00 13.3 C 47 % 2.24 C
181 25-04-2021 15:00:00 13.5 C 45 % 1.81 C
182 25-04-2021 15:05:00 13.5 C 45 % 1.81 C
183 25-04-2021 15:10:00 13.7 C 43 % 1.36 C
184 25-04-2021 15:15:00 13.9 C 44 % 1.86 C
185 25-04-2021 15:20:00 14 C 43 % 1.63 C
186 25-04-2021 15:25:00 14.1 C 42 % 1.4 C
187 25-04-2021 15:30:00 14.2 C 42 % 1.49 C
188 25-04-2021 15:35:00 14.3 C 42 % 1.58 C
189 25-04-2021 15:40:00 14.6 C 41 % 1.51 C
190 25-04-2021 15:45:00 14.7 C 39 % 0.91 C
191 25-04-2021 15:50:00 14.8 C 40 % 1.35 C
192 25-04-2021 15:55:00 15.1 C 42 % 2.3 C
193 25-04-2021 16:00:00 15.2 C 36 % 0.25 C
194 25-04-2021 16:05:00 15 C 37 % 0.45 C
195 25-04-2021 16:10:00 15.2 C 39 % 1.35 C
196 25-04-2021 16:15:00 15.6 C 39 % 1.71 C
197 25-04-2021 16:20:00 15.5 C 37 % 0.89 C
198 25-04-2021 16:25:00 15.7 C 36 % 0.69 C
199 25-04-2021 16:30:00 15.9 C 37 % 1.25 C
200 25-04-2021 16:35:00 16.2 C 38 % 1.88 C
Sensor: Nr:Datum:Temp:Feuchte:Taupunkt:
Aussen-T/F 201 25-04-2021 16:40:00 16.3 C 36 % 1.22 C
202 25-04-2021 16:45:00 16.3 C 36 % 1.22 C
203 25-04-2021 16:50:00 15.9 C 34 % 0.08 C
204 25-04-2021 16:55:00 15.7 C 33 % -0.51 C
205 25-04-2021 17:00:00 15.5 C 34 % -0.27 C
206 25-04-2021 17:05:00 15.4 C 34 % -0.36 C
207 25-04-2021 17:10:00 15.4 C 33 % -0.77 C
208 25-04-2021 17:15:00 15.5 C 34 % -0.27 C
209 25-04-2021 17:20:00 15.4 C 34 % -0.36 C
210 25-04-2021 17:25:00 15.4 C 34 % -0.36 C
211 25-04-2021 17:30:00 15.4 C 34 % -0.36 C
212 25-04-2021 17:35:00 15.5 C 35 % 0.12 C
213 25-04-2021 17:40:00 15.6 C 36 % 0.6 C
214 25-04-2021 17:45:00 15.5 C 38 % 1.26 C
215 25-04-2021 17:50:00 15.5 C 35 % 0.12 C
216 25-04-2021 17:55:00 15.6 C 33 % -0.6 C
217 25-04-2021 18:00:00 15.7 C 33 % -0.51 C
218 25-04-2021 18:05:00 15.7 C 33 % -0.51 C
219 25-04-2021 18:10:00 15.7 C 35 % 0.3 C
220 25-04-2021 18:15:00 15.8 C 33 % -0.42 C
221 25-04-2021 18:20:00 15.8 C 34 % -0.01 C
222 25-04-2021 18:25:00 15.9 C 35 % 0.48 C
223 25-04-2021 18:30:00 15.8 C 37 % 1.16 C
224 25-04-2021 18:35:00 15.6 C 37 % 0.98 C
225 25-04-2021 18:40:00 15.3 C 39 % 1.44 C
Sensor: Nr:Datum:Temp:Feuchte:Taupunkt:
Aussen-T/F 226 25-04-2021 18:45:00 15.2 C 40 % 1.71 C
227 25-04-2021 18:50:00 15.1 C 40 % 1.62 C
228 25-04-2021 18:55:00 14.8 C 42 % 2.03 C
229 25-04-2021 19:00:00 14.7 C 42 % 1.94 C
230 25-04-2021 19:05:00 14.6 C 42 % 1.85 C
231 25-04-2021 19:10:00 14.4 C 43 % 2 C
232 25-04-2021 19:15:00 14.3 C 44 % 2.23 C
233 25-04-2021 19:20:00 14.1 C 44 % 2.05 C
234 25-04-2021 19:25:00 14.1 C 45 % 2.36 C
235 25-04-2021 19:30:00 13.8 C 44 % 1.77 C
236 25-04-2021 19:35:00 13.7 C 45 % 2 C
237 25-04-2021 19:40:00 13.6 C 46 % 2.21 C
238 25-04-2021 19:45:00 13.5 C 46 % 2.12 C
239 25-04-2021 19:50:00 13.4 C 46 % 2.03 C
240 25-04-2021 19:55:00 13.3 C 47 % 2.24 C
241 25-04-2021 20:00:00 13.2 C 47 % 2.15 C
242 25-04-2021 20:05:00 12.9 C 47 % 1.87 C
243 25-04-2021 20:10:00 12.8 C 47 % 1.78 C
244 25-04-2021 20:15:00 12.6 C 48 % 1.89 C
245 25-04-2021 20:20:00 12.4 C 49 % 2 C
246 25-04-2021 20:25:00 12.2 C 49 % 1.82 C
247 25-04-2021 20:30:00 12.1 C 52 % 2.55 C
248 25-04-2021 20:35:00 11.8 C 52 % 2.28 C
249 25-04-2021 20:40:00 11.6 C 51 % 1.82 C
250 25-04-2021 20:45:00 11.4 C 53 % 2.17 C
Sensor: Nr:Datum:Temp:Feuchte:Taupunkt:
Aussen-T/F 251 25-04-2021 20:50:00 11.2 C 54 % 2.25 C
252 25-04-2021 20:55:00 10.8 C 56 % 2.39 C
253 25-04-2021 21:00:00 10.3 C 58 % 2.41 C
254 25-04-2021 21:05:00 9.8 C 60 % 2.42 C
255 25-04-2021 21:10:00 9.4 C 61 % 2.27 C
256 25-04-2021 21:15:00 9.1 C 62 % 2.22 C
257 25-04-2021 21:20:00 8.8 C 63 % 2.16 C
258 25-04-2021 21:25:00 8.6 C 64 % 2.19 C
259 25-04-2021 21:30:00 8.3 C 65 % 2.12 C
260 25-04-2021 21:35:00 8.3 C 65 % 2.12 C
261 25-04-2021 21:40:00 8.2 C 66 % 2.24 C
262 25-04-2021 21:45:00 8.1 C 66 % 2.14 C
263 25-04-2021 21:50:00 8 C 66 % 2.05 C
264 25-04-2021 21:55:00 7.8 C 67 % 2.07 C
265 25-04-2021 22:00:00 7.7 C 68 % 2.18 C
266 25-04-2021 22:05:00 7.5 C 67 % 1.78 C
267 25-04-2021 22:10:00 7.3 C 67 % 1.59 C
268 25-04-2021 22:15:00 7.2 C 69 % 1.9 C
269 25-04-2021 22:20:00 6.9 C 69 % 1.62 C
270 25-04-2021 22:25:00 6.8 C 70 % 1.72 C
271 25-04-2021 22:30:00 6.7 C 70 % 1.63 C
272 25-04-2021 22:35:00 6.5 C 70 % 1.43 C
273 25-04-2021 22:40:00 6.4 C 70 % 1.34 C
274 25-04-2021 22:45:00 6.3 C 71 % 1.44 C
275 25-04-2021 22:50:00 6.3 C 70 % 1.24 C
Sensor: Nr:Datum:Temp:Feuchte:Taupunkt:
Aussen-T/F 276 25-04-2021 22:55:00 6.3 C 70 % 1.24 C
277 25-04-2021 23:00:00 6.3 C 71 % 1.44 C
278 25-04-2021 23:05:00 6.2 C 70 % 1.15 C
279 25-04-2021 23:10:00 6.2 C 71 % 1.34 C
280 25-04-2021 23:15:00 6.2 C 71 % 1.34 C
281 25-04-2021 23:20:00 6.1 C 71 % 1.25 C
282 25-04-2021 23:25:00 6.1 C 71 % 1.25 C
283 25-04-2021 23:30:00 6.1 C 71 % 1.25 C
284 25-04-2021 23:35:00 5.9 C 72 % 1.25 C
285 25-04-2021 23:40:00 5.9 C 71 % 1.06 C
286 25-04-2021 23:45:00 5.9 C 71 % 1.06 C
287 25-04-2021 23:50:00 6 C 71 % 1.15 C
288 25-04-2021 23:55:00 5.9 C 71 % 1.06 C

Legende:
   Min
   Max


Maximal/Minimal-Werte vom 25.04.2021 - 25.04.2021

Sensor Min Max Avg
Temp
(Aussen-T/F)
2.3 °C
25-04-2021  05:45:00
16.3 °C
25-04-2021  16:40:00
8.31 °C
Feuchte
(Aussen-T/F)
33 %
25-04-2021  16:55:00
87 %
25-04-2021  05:20:00
64.8 %
Taupunkt
(Aussen-T/F)
-0.77 C
25-04-2021  17:10:00
2.96 C
25-04-2021  00:00:00
1.43 C

Die Daten stammen von einer Davis Vantage Pro 2 Wetter-Station und werden unter Linux mit der Software wview2wettercgi und aufbereitet. Alle Angaben erfolgen ohne Gewähr für ihre Vollständigkeit oder Richtigkeit.
Kontakt: Rainer Krienke krienke@uni-koblenz.de . Meine Webseiten an der Uni Koblenz oder privat.
Version: $Revision: 0.78 $